createdAt,value
2018-11-11T00:00:44.968Z,301.20
2018-11-11T00:01:44.957Z,280.60
2018-11-11T00:02:44.962Z,295.30
2018-11-11T00:03:44.950Z,287.90
2018-11-11T00:04:44.927Z,324.90
2018-11-11T00:05:44.928Z,315.10
2018-11-11T00:06:44.948Z,279.40
2018-11-11T00:07:44.902Z,312.50
2018-11-11T00:08:44.909Z,294.70
2018-11-11T00:09:44.888Z,294.40
2018-11-11T00:10:44.863Z,302.30
2018-11-11T00:11:44.892Z,328.70
2018-11-11T00:12:44.875Z,340.60
2018-11-11T00:13:44.875Z,317.30
2018-11-11T00:14:44.908Z,303.60
2018-11-11T00:15:44.834Z,295.70
2018-11-11T00:16:44.847Z,276.10
2018-11-11T00:17:44.810Z,304.20
2018-11-11T00:18:44.838Z,335.90
2018-11-11T00:19:44.835Z,258.10
2018-11-11T00:20:44.805Z,280.50
2018-11-11T00:21:44.832Z,332.50
2018-11-11T00:22:44.798Z,325.20
2018-11-11T00:23:44.795Z,273.90
2018-11-11T00:24:44.781Z,311.80
2018-11-11T00:25:44.754Z,296.10
2018-11-11T00:26:44.756Z,271.30
2018-11-11T00:27:44.742Z,342.00
2018-11-11T00:28:44.771Z,361.50
2018-11-11T00:29:44.731Z,351.60
2018-11-11T00:30:44.737Z,317.30
2018-11-11T00:31:44.722Z,338.10
2018-11-11T00:32:44.713Z,330.40
2018-11-11T00:33:44.729Z,299.20
2018-11-11T00:34:44.680Z,279.90
2018-11-11T00:35:44.689Z,297.20
2018-11-11T00:36:44.671Z,309.50
2018-11-11T00:37:44.676Z,328.30
2018-11-11T00:38:44.669Z,317.60
2018-11-11T00:39:44.760Z,333.30
2018-11-11T00:40:44.632Z,310.20
2018-11-11T00:41:44.629Z,325.60
2018-11-11T00:42:44.648Z,332.10
2018-11-11T00:43:44.635Z,332.50
2018-11-11T00:44:44.593Z,313.60
2018-11-11T00:45:44.614Z,324.20
2018-11-11T00:46:44.599Z,329.90
2018-11-11T00:47:44.593Z,346.40
2018-11-11T00:48:44.585Z,341.20
2018-11-11T00:49:44.558Z,334.90
2018-11-11T00:50:44.557Z,341.50
2018-11-11T00:51:44.571Z,330.80
2018-11-11T00:52:44.564Z,318.80
2018-11-11T00:53:44.528Z,301.70
2018-11-11T00:54:44.524Z,329.30
2018-11-11T00:55:44.533Z,281.50
2018-11-11T00:56:44.512Z,349.60
2018-11-11T00:57:44.513Z,359.80
2018-11-11T00:58:44.492Z,350.80
2018-11-11T00:59:44.500Z,349.30
2018-11-11T01:00:44.490Z,314.90
2018-11-11T01:01:44.478Z,314.70
2018-11-11T01:02:44.478Z,352.80
2018-11-11T01:03:44.463Z,364.40
2018-11-11T01:04:44.431Z,338.30
2018-11-11T01:05:44.443Z,336.40
2018-11-11T01:06:44.450Z,337.40
2018-11-11T01:07:44.429Z,318.30
2018-11-11T01:08:44.414Z,340.80
2018-11-11T01:09:44.401Z,317.90
2018-11-11T01:10:44.392Z,320.60
2018-11-11T01:11:44.392Z,350.90
2018-11-11T01:12:44.384Z,328.20
2018-11-11T01:13:44.359Z,322.60
2018-11-11T01:14:44.366Z,327.40
2018-11-11T01:15:44.345Z,331.20
2018-11-11T01:16:44.355Z,349.90
2018-11-11T01:17:44.318Z,326.40
2018-11-11T01:18:44.311Z,348.70
2018-11-11T01:19:44.338Z,352.10
2018-11-11T01:20:44.324Z,334.80
2018-11-11T01:21:44.306Z,306.10
2018-11-11T01:22:44.301Z,372.80
2018-11-11T01:23:44.282Z,366.20
2018-11-11T01:24:44.273Z,350.30
2018-11-11T01:25:44.264Z,317.30
2018-11-11T01:26:44.261Z,319.10
2018-11-11T01:27:44.264Z,308.60
2018-11-11T01:28:44.300Z,325.40
2018-11-11T01:29:44.285Z,348.20
2018-11-11T01:30:44.216Z,356.70
2018-11-11T01:31:44.231Z,350.70
2018-11-11T01:32:44.256Z,325.70
2018-11-11T01:33:44.199Z,320.40
2018-11-11T01:34:44.217Z,316.90
2018-11-11T01:35:44.195Z,334.70
2018-11-11T01:36:44.194Z,311.00
2018-11-11T01:37:44.174Z,322.80
2018-11-11T01:38:44.224Z,374.60
2018-11-11T01:39:44.165Z,369.70
2018-11-11T01:40:44.153Z,316.70
2018-11-11T01:41:44.129Z,346.40
2018-11-11T01:42:44.120Z,350.40
2018-11-11T01:43:44.121Z,325.40
2018-11-11T01:44:44.145Z,326.40
2018-11-11T01:45:44.097Z,365.40
2018-11-11T01:46:44.071Z,328.90
2018-11-11T01:47:44.078Z,314.10
2018-11-11T01:48:44.068Z,303.50
2018-11-11T01:49:44.086Z,349.60
2018-11-11T01:50:44.082Z,310.70
2018-11-11T01:51:44.078Z,336.10
2018-11-11T01:52:44.067Z,322.50
2018-11-11T01:53:44.040Z,330.40
2018-11-11T01:54:44.040Z,302.80
2018-11-11T01:55:44.010Z,331.70
2018-11-11T01:56:44.009Z,303.70
2018-11-11T01:57:44.008Z,315.40
2018-11-11T01:58:44.012Z,313.00
2018-11-11T01:59:43.969Z,311.80
2018-11-11T02:00:44.025Z,339.70
2018-11-11T02:01:43.973Z,341.80
2018-11-11T02:02:43.974Z,325.30
2018-11-11T02:03:43.944Z,342.90
2018-11-11T02:04:43.946Z,320.90
2018-11-11T02:05:43.995Z,325.30
2018-11-11T02:06:43.933Z,310.40
2018-11-11T02:07:43.909Z,336.40
2018-11-11T02:08:43.934Z,302.30
2018-11-11T02:09:43.969Z,309.90
2018-11-11T02:10:43.884Z,309.80
2018-11-11T02:11:43.961Z,313.90
2018-11-11T02:12:43.877Z,307.90
2018-11-11T02:13:43.869Z,328.90
2018-11-11T02:14:43.863Z,366.60
2018-11-11T02:15:43.853Z,338.90
2018-11-11T02:16:43.951Z,311.80
2018-11-11T02:17:43.867Z,371.80
2018-11-11T02:18:43.846Z,305.30
2018-11-11T02:19:43.836Z,352.90
2018-11-11T02:20:43.793Z,316.80
2018-11-11T02:21:43.915Z,340.70
2018-11-11T02:22:43.950Z,326.60
2018-11-11T02:23:43.778Z,344.00
2018-11-11T02:24:43.773Z,326.80
2018-11-11T02:25:43.832Z,358.00
2018-11-11T02:26:43.793Z,373.10
2018-11-11T02:27:43.849Z,371.70
2018-11-11T02:28:43.766Z,340.80
2018-11-11T02:29:43.761Z,337.60
2018-11-11T02:30:43.724Z,361.30
2018-11-11T02:31:43.779Z,357.30
2018-11-11T02:32:43.733Z,328.10
2018-11-11T02:33:43.812Z,335.50
2018-11-11T02:34:43.710Z,332.70
2018-11-11T02:35:43.694Z,326.10
2018-11-11T02:36:43.707Z,318.80
2018-11-11T02:37:43.776Z,324.30
2018-11-11T02:38:43.654Z,301.80
2018-11-11T02:39:43.706Z,310.10
2018-11-11T02:40:43.665Z,312.20
2018-11-11T02:41:43.674Z,341.40
2018-11-11T02:42:43.618Z,306.30
2018-11-11T02:43:43.651Z,342.30
2018-11-11T02:44:43.619Z,323.80
2018-11-11T02:45:43.632Z,329.50
2018-11-11T02:46:43.598Z,352.40
2018-11-11T02:47:43.580Z,335.20
2018-11-11T02:48:43.575Z,332.30
2018-11-11T02:49:43.573Z,348.70
2018-11-11T02:50:43.595Z,341.90
2018-11-11T02:51:43.546Z,335.20
2018-11-11T02:52:43.604Z,325.20
2018-11-11T02:53:43.547Z,345.10
2018-11-11T02:54:43.556Z,348.40
2018-11-11T02:55:43.543Z,252.20
2018-11-11T02:56:43.527Z,332.10
2018-11-11T02:57:43.519Z,298.70
2018-11-11T02:58:43.517Z,305.60
2018-11-11T02:59:43.520Z,309.10
2018-11-11T03:00:43.494Z,320.80
2018-11-11T03:01:43.486Z,322.50
2018-11-11T03:02:43.485Z,327.30
2018-11-11T03:03:43.463Z,325.10
2018-11-11T03:04:43.454Z,309.60
2018-11-11T03:05:43.452Z,319.40
2018-11-11T03:06:43.437Z,295.80
2018-11-11T03:07:43.464Z,321.90
2018-11-11T03:08:43.420Z,335.70
2018-11-11T03:09:43.433Z,342.40
2018-11-11T03:10:43.409Z,336.50
2018-11-11T03:11:43.414Z,304.90
2018-11-11T03:12:43.392Z,354.00
2018-11-11T03:13:43.391Z,304.90
2018-11-11T03:14:43.365Z,323.20
2018-11-11T03:15:43.345Z,329.30
2018-11-11T03:16:43.361Z,335.20
2018-11-11T03:17:43.341Z,350.10
2018-11-11T03:18:43.399Z,323.10
2018-11-11T03:19:43.339Z,320.50
2018-11-11T03:20:43.324Z,317.20
2018-11-11T03:21:43.329Z,293.40
2018-11-11T03:22:43.291Z,302.30
2018-11-11T03:23:43.291Z,326.10
2018-11-11T03:24:43.315Z,339.80
2018-11-11T03:25:43.323Z,349.90
2018-11-11T03:26:43.286Z,336.30
2018-11-11T03:27:43.282Z,343.90
2018-11-11T03:28:43.262Z,353.80
2018-11-11T03:29:43.270Z,339.80
2018-11-11T03:30:43.258Z,326.20
2018-11-11T03:31:43.253Z,336.80
2018-11-11T03:32:43.232Z,316.20
2018-11-11T03:33:43.215Z,299.20
2018-11-11T03:34:43.213Z,312.30
2018-11-11T03:35:43.213Z,335.90
2018-11-11T03:36:43.210Z,310.90
2018-11-11T03:37:43.173Z,311.20
2018-11-11T03:38:43.185Z,297.20
2018-11-11T03:39:43.179Z,293.80
2018-11-11T03:40:43.223Z,311.10
2018-11-11T03:41:43.175Z,311.30
2018-11-11T03:42:43.152Z,319.80
2018-11-11T03:43:43.146Z,307.80
2018-11-11T03:44:43.186Z,314.40
2018-11-11T03:45:43.112Z,336.00
2018-11-11T03:46:43.128Z,332.10
2018-11-11T03:47:43.089Z,326.30
2018-11-11T03:48:43.102Z,301.00
2018-11-11T03:49:43.106Z,313.20
2018-11-11T03:50:43.080Z,306.40
2018-11-11T03:51:43.096Z,321.80
2018-11-11T03:52:43.046Z,329.50
2018-11-11T03:53:43.093Z,331.00
2018-11-11T03:54:43.035Z,336.70
2018-11-11T03:55:43.076Z,335.30
2018-11-11T03:56:43.033Z,341.30
2018-11-11T03:57:43.038Z,326.30
2018-11-11T03:58:43.108Z,329.40
2018-11-11T03:59:43.014Z,339.60
2018-11-11T04:00:42.983Z,337.30
2018-11-11T04:01:42.977Z,324.70
2018-11-11T04:02:42.971Z,334.80
2018-11-11T04:03:42.992Z,325.40
2018-11-11T04:04:42.979Z,338.40
2018-11-11T04:05:42.958Z,311.50
2018-11-11T04:06:42.964Z,336.20
2018-11-11T04:07:42.959Z,343.70
2018-11-11T04:08:42.949Z,312.70
2018-11-11T04:09:42.932Z,350.10
2018-11-11T04:10:42.922Z,328.60
2018-11-11T04:11:42.940Z,321.80
2018-11-11T04:12:42.903Z,334.60
2018-11-11T04:13:42.887Z,330.60
2018-11-11T04:14:42.874Z,341.50
2018-11-11T04:15:42.884Z,353.60
2018-11-11T04:16:42.885Z,374.30
2018-11-11T04:17:42.878Z,344.10
2018-11-11T04:18:42.856Z,366.80
2018-11-11T04:19:42.901Z,353.80
2018-11-11T04:20:42.846Z,352.20
2018-11-11T04:21:42.839Z,338.60
2018-11-11T04:22:42.806Z,337.40
2018-11-11T04:23:42.859Z,362.00
2018-11-11T04:24:42.817Z,383.90
2018-11-11T04:25:42.803Z,368.30
2018-11-11T04:26:42.823Z,350.00
2018-11-11T04:27:42.788Z,339.00
2018-11-11T04:28:42.773Z,350.20
2018-11-11T04:29:42.782Z,354.10
2018-11-11T04:30:42.775Z,347.20
2018-11-11T04:31:42.747Z,350.80
2018-11-11T04:32:42.731Z,339.00
2018-11-11T04:33:42.701Z,330.70
2018-11-11T04:34:42.739Z,375.30
2018-11-11T04:35:42.709Z,358.60
2018-11-11T04:36:42.687Z,363.40
2018-11-11T04:37:42.690Z,348.50
2018-11-11T04:38:42.678Z,345.70
2018-11-11T04:39:42.717Z,349.70
2018-11-11T04:40:42.682Z,361.10
2018-11-11T04:41:42.666Z,365.10
2018-11-11T04:42:42.662Z,328.20
2018-11-11T04:43:42.647Z,327.40
2018-11-11T04:44:42.643Z,331.70
2018-11-11T04:45:42.642Z,358.30
2018-11-11T04:46:42.871Z,336.40
2018-11-11T04:47:42.592Z,340.20
2018-11-11T04:48:42.604Z,346.90
2018-11-11T04:49:42.604Z,352.80
2018-11-11T04:50:42.614Z,348.30
2018-11-11T04:51:42.576Z,347.80
2018-11-11T04:52:42.587Z,322.80
2018-11-11T04:53:42.542Z,360.30
2018-11-11T04:54:42.569Z,338.60
2018-11-11T04:55:42.553Z,327.60
2018-11-11T04:56:42.532Z,354.80
2018-11-11T04:57:42.530Z,372.80
2018-11-11T04:58:42.554Z,355.70
2018-11-11T04:59:42.531Z,348.20
2018-11-11T05:00:42.495Z,346.00
2018-11-11T05:01:42.878Z,346.20
2018-11-11T05:02:42.547Z,325.10
2018-11-11T05:03:42.496Z,356.80
2018-11-11T05:04:42.534Z,354.40
2018-11-11T05:05:42.448Z,351.50
2018-11-11T05:06:42.454Z,356.90
2018-11-11T05:07:42.448Z,350.90
2018-11-11T05:08:42.416Z,364.90
2018-11-11T05:09:42.430Z,355.10
2018-11-11T05:10:42.432Z,358.60
2018-11-11T05:11:42.432Z,355.80
2018-11-11T05:12:42.392Z,371.50
2018-11-11T05:13:42.437Z,374.10
2018-11-11T05:14:42.422Z,348.90
2018-11-11T05:15:42.383Z,353.40
2018-11-11T05:16:42.412Z,370.00
2018-11-11T05:17:42.363Z,397.10
2018-11-11T05:18:42.366Z,387.90
2018-11-11T05:19:42.350Z,371.30
2018-11-11T05:20:42.388Z,351.90
2018-11-11T05:21:42.343Z,357.00
2018-11-11T05:22:42.420Z,366.70
2018-11-11T05:23:42.326Z,342.60
2018-11-11T05:24:42.296Z,384.10
2018-11-11T05:25:42.283Z,378.70
2018-11-11T05:26:42.291Z,358.00
2018-11-11T05:27:42.288Z,376.40
2018-11-11T05:28:42.261Z,328.50
2018-11-11T05:29:42.252Z,343.30
2018-11-11T05:30:42.266Z,354.30
2018-11-11T05:31:42.238Z,334.20
2018-11-11T05:32:42.241Z,355.90
2018-11-11T05:33:42.246Z,343.80
2018-11-11T05:34:42.223Z,366.00
2018-11-11T05:35:42.211Z,372.70
2018-11-11T05:36:42.205Z,372.50
2018-11-11T05:37:42.197Z,362.80
2018-11-11T05:38:42.211Z,361.20
2018-11-11T05:39:42.179Z,354.00
2018-11-11T05:40:42.179Z,384.00
2018-11-11T05:41:42.167Z,377.60
2018-11-11T05:42:42.160Z,380.00
2018-11-11T05:43:42.149Z,344.70
2018-11-11T05:44:42.119Z,329.10
2018-11-11T05:45:42.131Z,346.80
2018-11-11T05:46:42.101Z,372.00
2018-11-11T05:47:42.109Z,338.30
2018-11-11T05:48:42.085Z,360.80
2018-11-11T05:49:42.432Z,338.20
2018-11-11T05:50:42.103Z,327.10
2018-11-11T05:51:42.059Z,326.60
2018-11-11T05:52:42.061Z,308.00
2018-11-11T05:53:42.058Z,314.40
2018-11-11T05:54:42.050Z,337.20
2018-11-11T05:55:42.037Z,377.10
2018-11-11T05:56:42.037Z,331.80
2018-11-11T05:57:42.024Z,377.60
2018-11-11T05:58:42.022Z,359.30
2018-11-11T05:59:42.045Z,374.60
2018-11-11T06:00:41.997Z,350.90
2018-11-11T06:01:42.001Z,375.70
2018-11-11T06:02:41.987Z,359.00
2018-11-11T06:03:41.960Z,371.30
2018-11-11T06:04:41.962Z,364.80
2018-11-11T06:05:41.956Z,355.20
2018-11-11T06:06:41.951Z,364.00
2018-11-11T06:07:41.951Z,357.40
2018-11-11T06:08:41.905Z,371.10
2018-11-11T06:09:41.911Z,356.10
2018-11-11T06:10:41.954Z,312.10
2018-11-11T06:11:41.890Z,382.30
2018-11-11T06:12:41.916Z,325.30
2018-11-11T06:13:41.912Z,304.70
2018-11-11T06:14:41.911Z,347.90
2018-11-11T06:15:41.883Z,394.30
2018-11-11T06:16:42.152Z,392.70
2018-11-11T06:17:41.824Z,369.90
2018-11-11T06:18:41.832Z,335.80
2018-11-11T06:19:41.825Z,335.40
2018-11-11T06:20:41.828Z,340.40
2018-11-11T06:21:41.842Z,326.10
2018-11-11T06:22:41.800Z,322.00
2018-11-11T06:23:41.799Z,343.40
2018-11-11T06:24:41.789Z,363.40
2018-11-11T06:25:41.763Z,341.90
2018-11-11T06:26:41.750Z,325.60
2018-11-11T06:27:41.821Z,322.10
2018-11-11T06:28:41.745Z,349.60
2018-11-11T06:29:41.744Z,320.20
2018-11-11T06:30:41.749Z,305.70
2018-11-11T06:31:41.728Z,335.50
2018-11-11T06:32:41.715Z,317.30
2018-11-11T06:33:41.683Z,342.60
2018-11-11T06:34:41.706Z,338.30
2018-11-11T06:35:41.696Z,329.40
2018-11-11T06:36:41.717Z,357.40
2018-11-11T06:37:41.654Z,356.70
2018-11-11T06:38:41.693Z,353.10
2018-11-11T06:39:41.694Z,347.20
2018-11-11T06:40:41.656Z,328.20
2018-11-11T06:41:41.650Z,343.80
2018-11-11T06:42:41.617Z,331.60
2018-11-11T06:43:41.595Z,342.90
2018-11-11T06:44:41.592Z,343.70
2018-11-11T06:45:41.585Z,329.60
2018-11-11T06:46:41.580Z,323.60
2018-11-11T06:47:41.587Z,321.90
2018-11-11T06:48:41.559Z,319.50
2018-11-11T06:49:41.592Z,303.90
2018-11-11T06:50:41.572Z,352.90
2018-11-11T06:51:41.559Z,336.90
2018-11-11T06:52:41.512Z,314.30
2018-11-11T06:53:41.536Z,325.10
2018-11-11T06:54:41.798Z,306.90
2018-11-11T06:55:41.496Z,320.30
2018-11-11T06:56:41.549Z,324.80
2018-11-11T06:57:41.506Z,343.60
2018-11-11T06:58:41.476Z,303.60
2018-11-11T06:59:41.623Z,311.50
2018-11-11T07:00:41.468Z,315.80
2018-11-11T07:01:41.466Z,282.70
2018-11-11T07:02:41.436Z,333.80
2018-11-11T07:03:41.456Z,297.60
2018-11-11T07:04:41.450Z,328.90
2018-11-11T07:05:41.408Z,328.00
2018-11-11T07:06:41.390Z,351.60
2018-11-11T07:07:41.466Z,361.10
2018-11-11T07:08:41.423Z,323.40
2018-11-11T07:09:41.375Z,330.20
2018-11-11T07:10:41.385Z,349.40
2018-11-11T07:11:41.362Z,333.00
2018-11-11T07:12:41.376Z,332.00
2018-11-11T07:13:41.375Z,310.10
2018-11-11T07:14:41.358Z,322.20
2018-11-11T07:15:41.327Z,337.90
2018-11-11T07:16:41.346Z,313.70
2018-11-11T07:17:41.317Z,283.40
2018-11-11T07:18:41.299Z,324.10
2018-11-11T07:19:41.312Z,318.40
2018-11-11T07:20:41.281Z,308.90
2018-11-11T07:21:41.289Z,314.90
2018-11-11T07:22:41.303Z,325.40
2018-11-11T07:23:41.319Z,301.60
2018-11-11T07:24:41.271Z,344.50
2018-11-11T07:25:41.254Z,316.70
2018-11-11T07:26:41.248Z,242.40
2018-11-11T07:27:41.220Z,301.80
2018-11-11T07:28:41.216Z,347.00
2018-11-11T07:29:41.196Z,306.50
2018-11-11T07:30:41.201Z,308.30
2018-11-11T07:31:41.205Z,292.90
2018-11-11T07:32:41.188Z,320.60
2018-11-11T07:33:41.163Z,335.90
2018-11-11T07:34:41.177Z,341.10
2018-11-11T07:35:41.148Z,325.90
2018-11-11T07:36:41.158Z,314.50
2018-11-11T07:37:41.143Z,317.30
2018-11-11T07:38:41.185Z,323.60
2018-11-11T07:39:41.145Z,310.40
2018-11-11T07:40:41.121Z,320.20
2018-11-11T07:41:41.116Z,334.30
2018-11-11T07:42:41.085Z,326.20
2018-11-11T07:43:41.097Z,312.10
2018-11-11T07:44:41.060Z,361.70
2018-11-11T07:45:41.071Z,328.50
2018-11-11T07:46:41.074Z,320.60
2018-11-11T07:47:41.074Z,305.60
2018-11-11T07:48:41.043Z,327.90
2018-11-11T07:49:41.029Z,331.50
2018-11-11T07:50:41.039Z,354.40
2018-11-11T07:51:41.030Z,347.20
2018-11-11T07:52:41.015Z,329.20
2018-11-11T07:53:41.010Z,321.00
2018-11-11T07:54:41.033Z,337.50
2018-11-11T07:55:40.999Z,374.30
2018-11-11T07:56:40.976Z,351.40
2018-11-11T07:57:40.990Z,329.80
2018-11-11T07:58:40.972Z,368.30
2018-11-11T07:59:40.964Z,326.90
2018-11-11T08:00:40.983Z,360.40
2018-11-11T08:01:40.982Z,338.80
2018-11-11T08:02:41.164Z,336.70
2018-11-11T08:03:40.915Z,378.80
2018-11-11T08:04:40.896Z,367.40
2018-11-11T08:05:40.911Z,366.60
2018-11-11T08:06:40.881Z,357.50
2018-11-11T08:07:40.901Z,370.90
2018-11-11T08:08:40.865Z,375.30
2018-11-11T08:09:40.868Z,378.20
2018-11-11T08:10:40.871Z,345.00
2018-11-11T08:11:40.861Z,316.10
2018-11-11T08:12:40.836Z,346.00
2018-11-11T08:13:40.885Z,365.40
2018-11-11T08:14:40.817Z,362.90
2018-11-11T08:15:40.813Z,367.60
2018-11-11T08:16:40.856Z,381.10
2018-11-11T08:17:40.800Z,338.70
2018-11-11T08:18:40.849Z,377.90
2018-11-11T08:19:40.782Z,394.20
2018-11-11T08:20:40.780Z,368.90
2018-11-11T08:21:40.750Z,384.70
2018-11-11T08:22:40.767Z,388.60
2018-11-11T08:23:40.780Z,312.00
2018-11-11T08:24:40.728Z,348.80
2018-11-11T08:25:40.735Z,338.50
2018-11-11T08:26:40.765Z,354.30
2018-11-11T08:27:40.770Z,333.10
2018-11-11T08:28:40.839Z,369.90
2018-11-11T08:29:40.696Z,368.00
2018-11-11T08:30:40.704Z,348.00
2018-11-11T08:31:40.687Z,349.20
2018-11-11T08:32:40.671Z,341.70
2018-11-11T08:33:40.668Z,346.50
2018-11-11T08:34:40.635Z,338.60
2018-11-11T08:35:40.657Z,356.00
2018-11-11T08:36:40.618Z,355.50
2018-11-11T08:37:40.638Z,353.50
2018-11-11T08:38:40.620Z,342.60
2018-11-11T08:39:40.620Z,305.30
2018-11-11T08:40:40.648Z,350.30
2018-11-11T08:41:40.604Z,341.90
2018-11-11T08:42:40.572Z,332.20
2018-11-11T08:43:40.585Z,302.00
2018-11-11T08:44:40.795Z,317.90
2018-11-11T08:45:40.556Z,318.80
2018-11-11T08:46:40.553Z,350.70
2018-11-11T08:47:40.530Z,359.90
2018-11-11T08:48:40.516Z,335.00
2018-11-11T08:49:40.530Z,363.10
2018-11-11T08:50:40.518Z,302.70
2018-11-11T08:51:40.535Z,341.80
2018-11-11T08:52:40.512Z,359.80
2018-11-11T08:53:40.500Z,311.40
2018-11-11T08:54:40.488Z,321.00
2018-11-11T08:55:40.478Z,294.80
2018-11-11T08:56:40.447Z,305.60
2018-11-11T08:57:40.436Z,305.60
2018-11-11T08:58:40.438Z,318.40
2018-11-11T08:59:40.456Z,348.90
2018-11-11T09:00:40.473Z,297.30
2018-11-11T09:01:40.428Z,266.00
2018-11-11T09:02:40.423Z,317.50
2018-11-11T09:03:40.395Z,355.90
2018-11-11T09:04:40.444Z,327.00
2018-11-11T09:05:40.373Z,328.80
2018-11-11T09:06:40.397Z,316.50
2018-11-11T09:07:40.369Z,315.10
2018-11-11T09:08:40.335Z,296.30
2018-11-11T09:09:40.346Z,329.90
2018-11-11T09:10:40.355Z,331.30
2018-11-11T09:11:40.421Z,341.80
2018-11-11T09:12:40.331Z,351.00
2018-11-11T09:13:40.336Z,339.20
2018-11-11T09:14:40.350Z,338.30
2018-11-11T09:15:40.337Z,313.80
2018-11-11T09:16:40.298Z,308.70
2018-11-11T09:17:40.275Z,332.00
2018-11-11T09:18:40.262Z,317.00
2018-11-11T09:19:40.279Z,305.80
2018-11-11T09:20:40.304Z,303.30
2018-11-11T09:21:40.241Z,335.40
2018-11-11T09:22:40.288Z,258.80
2018-11-11T09:23:40.269Z,294.30
2018-11-11T09:24:40.221Z,319.90
2018-11-11T09:25:40.270Z,322.20
2018-11-11T09:26:40.195Z,300.30
2018-11-11T09:27:40.209Z,323.20
2018-11-11T09:28:40.252Z,320.50
2018-11-11T09:29:40.270Z,324.60
2018-11-11T09:30:40.212Z,294.00
2018-11-11T09:31:40.160Z,314.90
2018-11-11T09:32:40.179Z,310.40
2018-11-11T09:33:40.150Z,323.80
2018-11-11T09:34:40.134Z,306.10
2018-11-11T09:35:40.160Z,291.10
2018-11-11T09:36:40.142Z,265.70
2018-11-11T09:37:40.125Z,276.80
2018-11-11T09:38:40.108Z,275.80
2018-11-11T09:39:40.089Z,288.90
2018-11-11T09:40:40.084Z,301.40
2018-11-11T09:41:40.097Z,238.30
2018-11-11T09:42:40.140Z,306.10
2018-11-11T09:43:40.080Z,284.80
2018-11-11T09:44:40.052Z,289.50
2018-11-11T09:45:40.039Z,275.20
2018-11-11T09:46:40.074Z,274.40
2018-11-11T09:47:40.074Z,275.20
2018-11-11T09:48:40.053Z,280.10
2018-11-11T09:49:40.063Z,238.40
2018-11-11T09:50:39.996Z,246.30
2018-11-11T09:51:40.005Z,263.90
2018-11-11T09:52:40.054Z,262.90
2018-11-11T09:53:40.024Z,281.80
2018-11-11T09:54:39.996Z,238.40
2018-11-11T09:55:39.957Z,268.40
2018-11-11T09:56:40.000Z,278.10
2018-11-11T09:57:40.002Z,258.90
2018-11-11T09:58:40.055Z,288.10
2018-11-11T09:59:39.952Z,266.50
2018-11-11T10:00:39.927Z,258.80
2018-11-11T10:01:39.965Z,255.40
2018-11-11T10:02:39.896Z,311.80
2018-11-11T10:03:39.888Z,310.90
2018-11-11T10:04:39.901Z,249.00
2018-11-11T10:05:39.892Z,291.20
2018-11-11T10:06:39.943Z,265.10
2018-11-11T10:07:39.863Z,297.60
2018-11-11T10:08:39.886Z,293.50
2018-11-11T10:09:39.868Z,245.10
2018-11-11T10:10:39.846Z,277.50
2018-11-11T10:11:39.836Z,233.60
2018-11-11T10:12:39.831Z,250.40
2018-11-11T10:13:39.832Z,227.20
2018-11-11T10:14:39.823Z,224.40
2018-11-11T10:15:39.805Z,280.40
2018-11-11T10:16:39.810Z,286.10
2018-11-11T10:17:39.810Z,299.80
2018-11-11T10:18:39.789Z,274.40
2018-11-11T10:19:39.775Z,279.00
2018-11-11T10:20:39.838Z,279.40
2018-11-11T10:21:39.760Z,231.60
2018-11-11T10:22:39.751Z,229.40
2018-11-11T10:23:39.737Z,253.30
2018-11-11T10:24:39.739Z,263.00
2018-11-11T10:25:39.716Z,263.60
2018-11-11T10:26:39.729Z,278.30
2018-11-11T10:27:39.723Z,226.00
2018-11-11T10:28:39.764Z,242.30
2018-11-11T10:29:39.708Z,257.00
2018-11-11T10:30:39.687Z,246.30
2018-11-11T10:31:39.682Z,239.70
2018-11-11T10:32:39.680Z,227.60
2018-11-11T10:33:39.741Z,245.70
2018-11-11T10:34:39.665Z,225.80
2018-11-11T10:35:39.655Z,233.40
2018-11-11T10:36:39.638Z,227.50
2018-11-11T10:37:39.649Z,229.80
2018-11-11T10:38:39.634Z,226.70
2018-11-11T10:39:39.632Z,245.80
2018-11-11T10:40:39.618Z,230.10
2018-11-11T10:41:39.660Z,262.60
2018-11-11T10:42:39.640Z,230.20
2018-11-11T10:43:39.610Z,229.20
2018-11-11T10:44:39.591Z,221.30
2018-11-11T10:45:39.589Z,171.70
2018-11-11T10:46:39.575Z,204.70
2018-11-11T10:47:39.570Z,200.90
2018-11-11T10:48:39.822Z,228.80
2018-11-11T10:49:39.541Z,216.40
2018-11-11T10:50:39.549Z,205.40
2018-11-11T10:51:39.543Z,175.30
2018-11-11T10:52:39.517Z,200.50
2018-11-11T10:53:39.539Z,215.60
2018-11-11T10:54:39.520Z,145.70
2018-11-11T10:55:39.535Z,173.90
2018-11-11T10:56:39.500Z,168.90
2018-11-11T10:57:39.490Z,192.50
2018-11-11T10:58:39.549Z,195.80
2018-11-11T10:59:39.489Z,193.20
2018-11-11T11:00:39.451Z,169.10
2018-11-11T11:01:39.449Z,210.80
2018-11-11T11:02:39.457Z,225.10
2018-11-11T11:03:39.495Z,172.70
2018-11-11T11:04:39.441Z,166.70
2018-11-11T11:05:39.456Z,192.90
2018-11-11T11:06:39.447Z,196.80
2018-11-11T11:07:39.478Z,186.40
2018-11-11T11:08:39.436Z,198.40
2018-11-11T11:09:39.453Z,207.70
2018-11-11T11:10:39.416Z,185.60
2018-11-11T11:11:39.408Z,187.10
2018-11-11T11:12:39.405Z,173.80
2018-11-11T11:13:39.376Z,178.20
2018-11-11T11:14:39.385Z,153.70
2018-11-11T11:15:39.379Z,166.70
2018-11-11T11:16:39.375Z,188.20
2018-11-11T11:17:39.350Z,169.70
2018-11-11T11:18:39.353Z,174.90
2018-11-11T11:19:39.342Z,188.90
2018-11-11T11:20:39.349Z,174.20
2018-11-11T11:21:39.357Z,157.40
2018-11-11T11:22:39.329Z,187.70
2018-11-11T11:23:39.369Z,166.10
2018-11-11T11:24:39.366Z,159.40
2018-11-11T11:25:39.413Z,156.80
2018-11-11T11:26:39.301Z,143.30
2018-11-11T11:27:39.315Z,138.80
2018-11-11T11:28:39.288Z,197.60
2018-11-11T11:29:39.290Z,204.60
2018-11-11T11:30:39.283Z,140.50
2018-11-11T11:31:39.316Z,171.50
2018-11-11T11:32:39.278Z,162.20
2018-11-11T11:33:39.271Z,185.50
2018-11-11T11:34:39.252Z,171.70
2018-11-11T11:35:39.278Z,149.00
2018-11-11T11:36:39.249Z,140.90
2018-11-11T11:37:39.242Z,149.60
2018-11-11T11:38:39.245Z,126.20
2018-11-11T11:39:39.226Z,149.00
2018-11-11T11:40:39.221Z,142.00
2018-11-11T11:41:39.220Z,129.90
2018-11-11T11:42:39.251Z,110.80
2018-11-11T11:43:39.191Z,115.70
2018-11-11T11:44:39.181Z,92.20
2018-11-11T11:45:39.187Z,99.00
2018-11-11T11:46:39.188Z,108.90
2018-11-11T11:47:39.196Z,102.60
2018-11-11T11:48:39.178Z,97.70
2018-11-11T11:49:39.151Z,118.30
2018-11-11T11:50:39.174Z,112.20
2018-11-11T11:51:39.167Z,83.20
2018-11-11T11:52:39.152Z,84.30
2018-11-11T11:53:39.150Z,81.00
2018-11-11T11:54:39.124Z,71.50
2018-11-11T11:55:39.199Z,72.90
2018-11-11T11:56:39.126Z,78.20
2018-11-11T11:57:39.114Z,82.00
2018-11-11T11:58:39.125Z,86.80
2018-11-11T11:59:39.099Z,79.80
2018-11-11T12:00:39.142Z,103.20
2018-11-11T12:01:39.114Z,74.00
2018-11-11T12:02:39.087Z,95.00
2018-11-11T12:03:39.075Z,66.40
2018-11-11T12:04:39.082Z,58.80
2018-11-11T12:05:39.083Z,67.90
2018-11-11T12:06:39.065Z,81.00
2018-11-11T12:07:39.084Z,69.90
2018-11-11T12:08:39.181Z,49.50
2018-11-11T12:09:39.068Z,61.40
2018-11-11T12:10:39.064Z,67.90
2018-11-11T12:11:39.063Z,66.30
2018-11-11T12:12:39.042Z,117.10
2018-11-11T12:13:39.047Z,71.90
2018-11-11T12:14:39.032Z,78.20
2018-11-11T12:15:39.049Z,57.30
2018-11-11T12:16:39.115Z,61.00
2018-11-11T12:17:39.031Z,53.90
2018-11-11T12:18:39.030Z,40.60
2018-11-11T12:19:39.026Z,47.40
2018-11-11T12:20:38.984Z,44.00
2018-11-11T12:21:39.001Z,43.70
2018-11-11T12:22:39.033Z,41.60
2018-11-11T12:23:38.979Z,45.60
2018-11-11T12:24:38.989Z,37.90
2018-11-11T12:25:39.001Z,33.90
2018-11-11T12:26:38.966Z,35.50
2018-11-11T12:27:39.028Z,29.50
2018-11-11T12:28:38.980Z,31.60
2018-11-11T12:29:38.947Z,29.70